sensor_id;sensor_type;location;lat;lon;timestamp;P1;durP1;ratioP1;P2;durP2;ratioP2
18455;SDS011;9357;49.900;8.208;2023-04-01T00:00:56;6.43;;;2.30;;
18455;SDS011;9357;49.900;8.208;2023-04-01T00:02:29;5.07;;;2.30;;
18455;SDS011;9357;49.900;8.208;2023-04-01T00:04:01;3.40;;;1.80;;
18455;SDS011;9357;49.900;8.208;2023-04-01T00:05:35;4.50;;;2.10;;
18455;SDS011;9357;49.900;8.208;2023-04-01T00:07:07;8.83;;;2.43;;
18455;SDS011;9357;49.900;8.208;2023-04-01T00:08:40;4.40;;;2.00;;
18455;SDS011;9357;49.900;8.208;2023-04-01T00:10:14;6.20;;;2.00;;
18455;SDS011;9357;49.900;8.208;2023-04-01T00:11:47;6.13;;;2.00;;
18455;SDS011;9357;49.900;8.208;2023-04-01T00:13:20;4.80;;;1.90;;
18455;SDS011;9357;49.900;8.208;2023-04-01T00:14:54;4.40;;;1.95;;
18455;SDS011;9357;49.900;8.208;2023-04-01T00:16:27;4.10;;;1.80;;
18455;SDS011;9357;49.900;8.208;2023-04-01T00:18:00;5.93;;;1.80;;
18455;SDS011;9357;49.900;8.208;2023-04-01T00:19:32;5.35;;;2.25;;
18455;SDS011;9357;49.900;8.208;2023-04-01T00:21:05;7.30;;;1.92;;
18455;SDS011;9357;49.900;8.208;2023-04-01T00:22:38;3.37;;;1.43;;
18455;SDS011;9357;49.900;8.208;2023-04-01T00:24:11;6.57;;;2.03;;
18455;SDS011;9357;49.900;8.208;2023-04-01T00:25:44;4.20;;;1.50;;
18455;SDS011;9357;49.900;8.208;2023-04-01T00:27:19;5.68;;;1.65;;
18455;SDS011;9357;49.900;8.208;2023-04-01T00:28:52;5.07;;;1.70;;
18455;SDS011;9357;49.900;8.208;2023-04-01T00:30:26;5.83;;;2.07;;
18455;SDS011;9357;49.900;8.208;2023-04-01T00:31:58;5.87;;;1.80;;
18455;SDS011;9357;49.900;8.208;2023-04-01T00:33:32;4.63;;;1.73;;
18455;SDS011;9357;49.900;8.208;2023-04-01T00:35:05;3.97;;;1.90;;
18455;SDS011;9357;49.900;8.208;2023-04-01T00:36:38;5.63;;;1.83;;
18455;SDS011;9357;49.900;8.208;2023-04-01T00:38:11;6.40;;;2.20;;
18455;SDS011;9357;49.900;8.208;2023-04-01T00:39:44;4.53;;;1.90;;
18455;SDS011;9357;49.900;8.208;2023-04-01T00:41:17;5.07;;;1.95;;
18455;SDS011;9357;49.900;8.208;2023-04-01T00:42:52;3.10;;;1.70;;
18455;SDS011;9357;49.900;8.208;2023-04-01T00:44:26;3.22;;;1.90;;
18455;SDS011;9357;49.900;8.208;2023-04-01T00:46:02;4.47;;;1.80;;
18455;SDS011;9357;49.900;8.208;2023-04-01T00:47:34;6.43;;;2.20;;
18455;SDS011;9357;49.900;8.208;2023-04-01T00:49:07;4.07;;;1.93;;
18455;SDS011;9357;49.900;8.208;2023-04-01T00:50:42;2.85;;;1.73;;
18455;SDS011;9357;49.900;8.208;2023-04-01T00:52:19;4.10;;;1.80;;
18455;SDS011;9357;49.900;8.208;2023-04-01T00:53:55;3.38;;;1.80;;
18455;SDS011;9357;49.900;8.208;2023-04-01T00:55:30;5.17;;;1.80;;
18455;SDS011;9357;49.900;8.208;2023-04-01T00:57:08;3.92;;;1.80;;
18455;SDS011;9357;49.900;8.208;2023-04-01T00:58:46;4.82;;;1.90;;
18455;SDS011;9357;49.900;8.208;2023-04-01T01:00:23;5.50;;;1.80;;
18455;SDS011;9357;49.900;8.208;2023-04-01T01:01:56;3.33;;;1.57;;
18455;SDS011;9357;49.900;8.208;2023-04-01T01:03:30;3.45;;;1.60;;
18455;SDS011;9357;49.900;8.208;2023-04-01T01:05:03;3.88;;;1.65;;
18455;SDS011;9357;49.900;8.208;2023-04-01T01:06:41;4.38;;;1.75;;
18455;SDS011;9357;49.900;8.208;2023-04-01T01:08:20;4.37;;;1.40;;
18455;SDS011;9357;49.900;8.208;2023-04-01T01:10:02;6.40;;;1.60;;
18455;SDS011;9357;49.900;8.208;2023-04-01T01:11:41;3.17;;;1.30;;
18455;SDS011;9357;49.900;8.208;2023-04-01T01:13:16;4.03;;;1.35;;
18455;SDS011;9357;49.900;8.208;2023-04-01T01:14:54;6.20;;;1.30;;
18455;SDS011;9357;49.900;8.208;2023-04-01T01:16:33;4.22;;;1.35;;
18455;SDS011;9357;49.900;8.208;2023-04-01T01:18:16;3.47;;;1.40;;
18455;SDS011;9357;49.900;8.208;2023-04-01T01:20:00;2.78;;;1.30;;
18455;SDS011;9357;49.900;8.208;2023-04-01T01:22:08;3.63;;;1.40;;
18455;SDS011;9357;49.900;8.208;2023-04-01T01:24:04;3.92;;;1.30;;
18455;SDS011;9357;49.900;8.208;2023-04-01T01:26:01;2.85;;;1.10;;
18455;SDS011;9357;49.900;8.208;2023-04-01T01:27:48;2.65;;;1.05;;
18455;SDS011;9357;49.900;8.208;2023-04-01T01:29:33;4.22;;;1.35;;
18455;SDS011;9357;49.900;8.208;2023-04-01T01:31:29;4.05;;;1.30;;
18455;SDS011;9357;49.900;8.208;2023-04-01T01:33:13;1.65;;;1.00;;
18455;SDS011;9357;49.900;8.208;2023-04-01T01:35:06;4.07;;;1.05;;
18455;SDS011;9357;49.900;8.208;2023-04-01T01:36:47;3.75;;;1.42;;
18455;SDS011;9357;49.900;8.208;2023-04-01T01:38:26;4.35;;;1.70;;
18455;SDS011;9357;49.900;8.208;2023-04-01T01:40:04;4.50;;;1.50;;
18455;SDS011;9357;49.900;8.208;2023-04-01T01:41:39;2.47;;;1.23;;
18455;SDS011;9357;49.900;8.208;2023-04-01T01:43:15;4.93;;;1.53;;
18455;SDS011;9357;49.900;8.208;2023-04-01T01:44:50;4.82;;;1.50;;
18455;SDS011;9357;49.900;8.208;2023-04-01T01:46:26;5.15;;;1.40;;
18455;SDS011;9357;49.900;8.208;2023-04-01T01:48:01;3.10;;;1.40;;
18455;SDS011;9357;49.900;8.208;2023-04-01T01:49:36;3.08;;;1.30;;
18455;SDS011;9357;49.900;8.208;2023-04-01T01:51:12;5.68;;;1.63;;
18455;SDS011;9357;49.900;8.208;2023-04-01T01:52:45;3.25;;;1.25;;
18455;SDS011;9357;49.900;8.208;2023-04-01T01:54:17;3.35;;;1.40;;
18455;SDS011;9357;49.900;8.208;2023-04-01T01:55:50;3.47;;;1.02;;
18455;SDS011;9357;49.900;8.208;2023-04-01T01:57:24;4.57;;;1.40;;
18455;SDS011;9357;49.900;8.208;2023-04-01T01:59:00;4.60;;;1.52;;
18455;SDS011;9357;49.900;8.208;2023-04-01T02:00:36;4.38;;;1.55;;
18455;SDS011;9357;49.900;8.208;2023-04-01T02:02:08;6.32;;;1.45;;
18455;SDS011;9357;49.900;8.208;2023-04-01T02:03:42;3.63;;;1.43;;
18455;SDS011;9357;49.900;8.208;2023-04-01T02:05:17;4.43;;;1.40;;
18455;SDS011;9357;49.900;8.208;2023-04-01T02:06:55;3.10;;;1.50;;
18455;SDS011;9357;49.900;8.208;2023-04-01T02:08:33;2.90;;;1.42;;
18455;SDS011;9357;49.900;8.208;2023-04-01T02:10:09;5.22;;;1.50;;
18455;SDS011;9357;49.900;8.208;2023-04-01T02:11:42;3.00;;;1.30;;
18455;SDS011;9357;49.900;8.208;2023-04-01T02:13:21;4.65;;;1.48;;
18455;SDS011;9357;49.900;8.208;2023-04-01T02:15:03;4.30;;;1.40;;
18455;SDS011;9357;49.900;8.208;2023-04-01T02:16:40;4.65;;;1.50;;
18455;SDS011;9357;49.900;8.208;2023-04-01T02:18:17;2.88;;;1.40;;
18455;SDS011;9357;49.900;8.208;2023-04-01T02:19:52;3.05;;;1.20;;
18455;SDS011;9357;49.900;8.208;2023-04-01T02:21:31;2.70;;;1.13;;
18455;SDS011;9357;49.900;8.208;2023-04-01T02:23:06;5.03;;;1.40;;
18455;SDS011;9357;49.900;8.208;2023-04-01T02:24:40;3.50;;;1.30;;
18455;SDS011;9357;49.900;8.208;2023-04-01T02:26:14;2.93;;;1.03;;
18455;SDS011;9357;49.900;8.208;2023-04-01T02:27:48;2.17;;;1.20;;
18455;SDS011;9357;49.900;8.208;2023-04-01T02:29:20;4.28;;;1.52;;
18455;SDS011;9357;49.900;8.208;2023-04-01T02:30:56;2.75;;;1.40;;
18455;SDS011;9357;49.900;8.208;2023-04-01T02:32:31;4.73;;;1.30;;
18455;SDS011;9357;49.900;8.208;2023-04-01T02:34:06;2.63;;;1.20;;
18455;SDS011;9357;49.900;8.208;2023-04-01T02:35:39;4.05;;;1.40;;
18455;SDS011;9357;49.900;8.208;2023-04-01T02:37:12;3.85;;;1.50;;
18455;SDS011;9357;49.900;8.208;2023-04-01T02:38:46;5.50;;;1.70;;
18455;SDS011;9357;49.900;8.208;2023-04-01T02:40:21;3.13;;;1.40;;
18455;SDS011;9357;49.900;8.208;2023-04-01T02:41:53;5.70;;;1.40;;
18455;SDS011;9357;49.900;8.208;2023-04-01T02:43:26;4.15;;;1.50;;
18455;SDS011;9357;49.900;8.208;2023-04-01T02:44:59;4.05;;;1.30;;
18455;SDS011;9357;49.900;8.208;2023-04-01T02:46:31;3.25;;;1.70;;
18455;SDS011;9357;49.900;8.208;2023-04-01T02:48:04;3.25;;;1.50;;
18455;SDS011;9357;49.900;8.208;2023-04-01T02:49:37;2.90;;;1.30;;
18455;SDS011;9357;49.900;8.208;2023-04-01T02:51:10;3.28;;;1.33;;
18455;SDS011;9357;49.900;8.208;2023-04-01T02:52:43;3.08;;;1.20;;
18455;SDS011;9357;49.900;8.208;2023-04-01T02:54:17;4.07;;;1.48;;
18455;SDS011;9357;49.900;8.208;2023-04-01T02:55:50;2.47;;;1.10;;
18455;SDS011;9357;49.900;8.208;2023-04-01T02:57:23;3.47;;;1.30;;
18455;SDS011;9357;49.900;8.208;2023-04-01T02:58:55;2.50;;;1.25;;
18455;SDS011;9357;49.900;8.208;2023-04-01T03:00:28;6.45;;;1.50;;
18455;SDS011;9357;49.900;8.208;2023-04-01T03:02:01;4.27;;;1.20;;
18455;SDS011;9357;49.900;8.208;2023-04-01T03:03:34;3.28;;;1.48;;
18455;SDS011;9357;49.900;8.208;2023-04-01T03:05:07;1.75;;;1.30;;
18455;SDS011;9357;49.900;8.208;2023-04-01T03:06:40;4.45;;;1.42;;
18455;SDS011;9357;49.900;8.208;2023-04-01T03:08:13;2.95;;;1.40;;
18455;SDS011;9357;49.900;8.208;2023-04-01T03:09:46;2.88;;;1.40;;
18455;SDS011;9357;49.900;8.208;2023-04-01T03:11:19;2.83;;;1.25;;
18455;SDS011;9357;49.900;8.208;2023-04-01T03:12:52;3.90;;;1.53;;
18455;SDS011;9357;49.900;8.208;2023-04-01T03:14:25;3.85;;;1.50;;
18455;SDS011;9357;49.900;8.208;2023-04-01T03:15:57;3.33;;;1.23;;
18455;SDS011;9357;49.900;8.208;2023-04-01T03:17:30;4.00;;;1.42;;
18455;SDS011;9357;49.900;8.208;2023-04-01T03:19:02;2.67;;;1.40;;
18455;SDS011;9357;49.900;8.208;2023-04-01T03:20:35;5.63;;;1.35;;
18455;SDS011;9357;49.900;8.208;2023-04-01T03:22:07;4.10;;;1.55;;
18455;SDS011;9357;49.900;8.208;2023-04-01T03:23:41;4.05;;;1.55;;
18455;SDS011;9357;49.900;8.208;2023-04-01T03:25:15;5.55;;;1.38;;
18455;SDS011;9357;49.900;8.208;2023-04-01T03:26:48;3.63;;;1.50;;
18455;SDS011;9357;49.900;8.208;2023-04-01T03:28:21;4.47;;;1.40;;
18455;SDS011;9357;49.900;8.208;2023-04-01T03:29:54;2.75;;;1.20;;
18455;SDS011;9357;49.900;8.208;2023-04-01T03:31:27;3.10;;;1.27;;
18455;SDS011;9357;49.900;8.208;2023-04-01T03:32:59;4.03;;;1.48;;
18455;SDS011;9357;49.900;8.208;2023-04-01T03:34:32;3.95;;;1.40;;
18455;SDS011;9357;49.900;8.208;2023-04-01T03:36:05;5.60;;;1.60;;
18455;SDS011;9357;49.900;8.208;2023-04-01T03:37:39;5.80;;;1.38;;
18455;SDS011;9357;49.900;8.208;2023-04-01T03:39:12;2.20;;;1.17;;
18455;SDS011;9357;49.900;8.208;2023-04-01T03:40:45;5.57;;;1.50;;
18455;SDS011;9357;49.900;8.208;2023-04-01T03:42:18;4.05;;;1.33;;
18455;SDS011;9357;49.900;8.208;2023-04-01T03:43:51;4.47;;;1.50;;
18455;SDS011;9357;49.900;8.208;2023-04-01T03:45:24;4.00;;;1.10;;
18455;SDS011;9357;49.900;8.208;2023-04-01T03:46:57;5.20;;;1.10;;
18455;SDS011;9357;49.900;8.208;2023-04-01T03:48:30;3.83;;;1.40;;
18455;SDS011;9357;49.900;8.208;2023-04-01T03:50:02;3.73;;;1.50;;
18455;SDS011;9357;49.900;8.208;2023-04-01T03:51:36;4.20;;;1.25;;
18455;SDS011;9357;49.900;8.208;2023-04-01T03:53:09;3.33;;;1.13;;
18455;SDS011;9357;49.900;8.208;2023-04-01T03:54:42;3.08;;;1.00;;
18455;SDS011;9357;49.900;8.208;2023-04-01T03:56:16;5.78;;;1.15;;
18455;SDS011;9357;49.900;8.208;2023-04-01T03:57:49;3.15;;;1.13;;
18455;SDS011;9357;49.900;8.208;2023-04-01T03:59:22;5.03;;;1.10;;
18455;SDS011;9357;49.900;8.208;2023-04-01T04:00:55;3.30;;;1.30;;
18455;SDS011;9357;49.900;8.208;2023-04-01T04:02:28;3.55;;;1.42;;
18455;SDS011;9357;49.900;8.208;2023-04-01T04:04:00;2.63;;;1.15;;
18455;SDS011;9357;49.900;8.208;2023-04-01T04:05:33;2.88;;;1.50;;
18455;SDS011;9357;49.900;8.208;2023-04-01T04:07:06;3.15;;;1.42;;
18455;SDS011;9357;49.900;8.208;2023-04-01T04:08:38;1.58;;;1.10;;
18455;SDS011;9357;49.900;8.208;2023-04-01T04:10:11;3.08;;;1.30;;
18455;SDS011;9357;49.900;8.208;2023-04-01T04:11:45;2.70;;;1.50;;
18455;SDS011;9357;49.900;8.208;2023-04-01T04:13:18;4.95;;;1.45;;
18455;SDS011;9357;49.900;8.208;2023-04-01T04:14:51;2.72;;;1.50;;
18455;SDS011;9357;49.900;8.208;2023-04-01T04:16:24;3.53;;;1.20;;
18455;SDS011;9357;49.900;8.208;2023-04-01T04:17:56;4.20;;;1.50;;
18455;SDS011;9357;49.900;8.208;2023-04-01T04:19:31;4.63;;;1.50;;
18455;SDS011;9357;49.900;8.208;2023-04-01T04:21:05;2.78;;;1.30;;
18455;SDS011;9357;49.900;8.208;2023-04-01T04:22:38;2.30;;;1.20;;
18455;SDS011;9357;49.900;8.208;2023-04-01T04:24:11;1.77;;;1.20;;
18455;SDS011;9357;49.900;8.208;2023-04-01T04:25:52;3.63;;;1.30;;
18455;SDS011;9357;49.900;8.208;2023-04-01T04:27:27;2.95;;;1.10;;
18455;SDS011;9357;49.900;8.208;2023-04-01T04:29:01;3.27;;;1.10;;
18455;SDS011;9357;49.900;8.208;2023-04-01T04:30:34;4.20;;;1.30;;
18455;SDS011;9357;49.900;8.208;2023-04-01T04:32:06;5.53;;;1.35;;
18455;SDS011;9357;49.900;8.208;2023-04-01T04:33:39;4.47;;;1.38;;
18455;SDS011;9357;49.900;8.208;2023-04-01T04:35:11;5.38;;;1.20;;
18455;SDS011;9357;49.900;8.208;2023-04-01T04:36:44;5.00;;;1.25;;
18455;SDS011;9357;49.900;8.208;2023-04-01T04:38:17;4.95;;;1.55;;
18455;SDS011;9357;49.900;8.208;2023-04-01T04:39:49;2.63;;;1.23;;
18455;SDS011;9357;49.900;8.208;2023-04-01T04:41:22;2.10;;;1.30;;
18455;SDS011;9357;49.900;8.208;2023-04-01T04:42:56;4.43;;;1.40;;
18455;SDS011;9357;49.900;8.208;2023-04-01T04:44:29;5.28;;;1.10;;
18455;SDS011;9357;49.900;8.208;2023-04-01T04:46:03;3.43;;;1.00;;
18455;SDS011;9357;49.900;8.208;2023-04-01T04:47:37;3.07;;;1.33;;
18455;SDS011;9357;49.900;8.208;2023-04-01T04:49:09;2.77;;;1.00;;
18455;SDS011;9357;49.900;8.208;2023-04-01T04:50:42;3.15;;;1.10;;
18455;SDS011;9357;49.900;8.208;2023-04-01T04:52:15;3.95;;;1.27;;
18455;SDS011;9357;49.900;8.208;2023-04-01T04:53:48;3.17;;;1.10;;
18455;SDS011;9357;49.900;8.208;2023-04-01T04:55:23;5.00;;;1.50;;
18455;SDS011;9357;49.900;8.208;2023-04-01T04:56:55;3.85;;;1.02;;
18455;SDS011;9357;49.900;8.208;2023-04-01T04:58:29;4.23;;;1.23;;
18455;SDS011;9357;49.900;8.208;2023-04-01T05:00:02;3.53;;;1.02;;
18455;SDS011;9357;49.900;8.208;2023-04-01T05:01:35;2.38;;;1.05;;
18455;SDS011;9357;49.900;8.208;2023-04-01T05:03:08;2.88;;;1.10;;
18455;SDS011;9357;49.900;8.208;2023-04-01T05:04:42;4.15;;;1.40;;
18455;SDS011;9357;49.900;8.208;2023-04-01T05:06:15;3.50;;;1.30;;
18455;SDS011;9357;49.900;8.208;2023-04-01T05:07:48;3.58;;;1.10;;
18455;SDS011;9357;49.900;8.208;2023-04-01T05:09:20;3.38;;;1.02;;
18455;SDS011;9357;49.900;8.208;2023-04-01T05:10:53;2.00;;;1.20;;
18455;SDS011;9357;49.900;8.208;2023-04-01T05:12:25;2.13;;;1.15;;
18455;SDS011;9357;49.900;8.208;2023-04-01T05:14:00;2.83;;;1.20;;
18455;SDS011;9357;49.900;8.208;2023-04-01T05:15:32;3.08;;;1.20;;
18455;SDS011;9357;49.900;8.208;2023-04-01T05:17:07;2.40;;;1.20;;
18455;SDS011;9357;49.900;8.208;2023-04-01T05:18:40;6.70;;;2.50;;
18455;SDS011;9357;49.900;8.208;2023-04-01T05:20:12;6.63;;;2.90;;
18455;SDS011;9357;49.900;8.208;2023-04-01T05:21:46;6.25;;;2.80;;
18455;SDS011;9357;49.900;8.208;2023-04-01T05:23:19;3.63;;;1.70;;
18455;SDS011;9357;49.900;8.208;2023-04-01T05:24:52;5.30;;;2.40;;
18455;SDS011;9357;49.900;8.208;2023-04-01T05:26:25;3.60;;;1.70;;
18455;SDS011;9357;49.900;8.208;2023-04-01T05:27:58;2.33;;;1.60;;
18455;SDS011;9357;49.900;8.208;2023-04-01T05:29:32;2.20;;;1.02;;
18455;SDS011;9357;49.900;8.208;2023-04-01T05:31:06;1.48;;;0.95;;
18455;SDS011;9357;49.900;8.208;2023-04-01T05:32:39;3.35;;;0.90;;
18455;SDS011;9357;49.900;8.208;2023-04-01T05:34:12;3.97;;;1.30;;
18455;SDS011;9357;49.900;8.208;2023-04-01T05:35:45;1.92;;;1.13;;
18455;SDS011;9357;49.900;8.208;2023-04-01T05:37:18;2.80;;;1.20;;
18455;SDS011;9357;49.900;8.208;2023-04-01T05:38:54;1.58;;;1.20;;
18455;SDS011;9357;49.900;8.208;2023-04-01T05:40:27;2.50;;;1.75;;
18455;SDS011;9357;49.900;8.208;2023-04-01T05:42:00;4.15;;;1.45;;
18455;SDS011;9357;49.900;8.208;2023-04-01T05:43:35;2.03;;;1.20;;
18455;SDS011;9357;49.900;8.208;2023-04-01T05:45:09;2.90;;;1.00;;
18455;SDS011;9357;49.900;8.208;2023-04-01T05:46:42;1.52;;;1.02;;
18455;SDS011;9357;49.900;8.208;2023-04-01T05:48:15;2.92;;;1.00;;
18455;SDS011;9357;49.900;8.208;2023-04-01T05:49:48;3.50;;;1.17;;
18455;SDS011;9357;49.900;8.208;2023-04-01T05:51:20;0.93;;;0.90;;
18455;SDS011;9357;49.900;8.208;2023-04-01T05:52:53;3.25;;;1.10;;
18455;SDS011;9357;49.900;8.208;2023-04-01T05:54:26;2.25;;;1.38;;
18455;SDS011;9357;49.900;8.208;2023-04-01T05:56:01;1.17;;;1.08;;
18455;SDS011;9357;49.900;8.208;2023-04-01T05:57:34;2.42;;;1.77;;
18455;SDS011;9357;49.900;8.208;2023-04-01T05:59:06;2.30;;;1.70;;
18455;SDS011;9357;49.900;8.208;2023-04-01T06:00:43;1.38;;;1.15;;
18455;SDS011;9357;49.900;8.208;2023-04-01T06:02:18;1.75;;;0.85;;
18455;SDS011;9357;49.900;8.208;2023-04-01T06:03:51;4.45;;;1.92;;
18455;SDS011;9357;49.900;8.208;2023-04-01T06:05:24;1.95;;;1.30;;
18455;SDS011;9357;49.900;8.208;2023-04-01T06:06:59;1.90;;;1.05;;
18455;SDS011;9357;49.900;8.208;2023-04-01T06:08:32;2.50;;;1.20;;
18455;SDS011;9357;49.900;8.208;2023-04-01T06:10:09;2.47;;;0.82;;
18455;SDS011;9357;49.900;8.208;2023-04-01T06:11:48;1.70;;;0.80;;
18455;SDS011;9357;49.900;8.208;2023-04-01T06:13:37;2.70;;;1.00;;
18455;SDS011;9357;49.900;8.208;2023-04-01T06:15:28;2.13;;;1.00;;
18455;SDS011;9357;49.900;8.208;2023-04-01T06:17:12;2.38;;;1.00;;
18455;SDS011;9357;49.900;8.208;2023-04-01T06:19:02;3.88;;;1.00;;
18455;SDS011;9357;49.900;8.208;2023-04-01T06:20:42;3.58;;;1.20;;
18455;SDS011;9357;49.900;8.208;2023-04-01T06:22:31;2.28;;;1.00;;
18455;SDS011;9357;49.900;8.208;2023-04-01T06:24:25;2.55;;;0.65;;
18455;SDS011;9357;49.900;8.208;2023-04-01T06:26:18;1.92;;;0.90;;
18455;SDS011;9357;49.900;8.208;2023-04-01T06:28:04;1.80;;;1.40;;
18455;SDS011;9357;49.900;8.208;2023-04-01T06:29:57;1.67;;;0.85;;
18455;SDS011;9357;49.900;8.208;2023-04-01T06:31:44;3.00;;;1.20;;
18455;SDS011;9357;49.900;8.208;2023-04-01T06:33:38;1.52;;;1.08;;
18455;SDS011;9357;49.900;8.208;2023-04-01T06:35:38;2.60;;;0.82;;
18455;SDS011;9357;49.900;8.208;2023-04-01T06:37:29;1.05;;;0.82;;
18455;SDS011;9357;49.900;8.208;2023-04-01T06:43:27;1.13;;;1.02;;
18455;SDS011;9357;49.900;8.208;2023-04-01T06:45:16;2.38;;;1.50;;
18455;SDS011;9357;49.900;8.208;2023-04-01T06:47:02;1.50;;;1.40;;
18455;SDS011;9357;49.900;8.208;2023-04-01T06:48:57;2.47;;;2.27;;
18455;SDS011;9357;49.900;8.208;2023-04-01T06:50:40;2.47;;;1.73;;
18455;SDS011;9357;49.900;8.208;2023-04-01T06:52:22;3.03;;;1.70;;
18455;SDS011;9357;49.900;8.208;2023-04-01T06:54:00;2.20;;;0.87;;
18455;SDS011;9357;49.900;8.208;2023-04-01T06:55:39;1.55;;;0.80;;
18455;SDS011;9357;49.900;8.208;2023-04-01T06:57:20;1.33;;;0.90;;
18455;SDS011;9357;49.900;8.208;2023-04-01T06:58:58;2.33;;;1.00;;
18455;SDS011;9357;49.900;8.208;2023-04-01T07:00:34;1.40;;;0.60;;
18455;SDS011;9357;49.900;8.208;2023-04-01T07:02:13;1.55;;;0.60;;
18455;SDS011;9357;49.900;8.208;2023-04-01T07:03:55;0.70;;;0.70;;
18455;SDS011;9357;49.900;8.208;2023-04-01T07:05:32;1.80;;;0.70;;
18455;SDS011;9357;49.900;8.208;2023-04-01T07:07:09;1.03;;;0.70;;
18455;SDS011;9357;49.900;8.208;2023-04-01T07:08:47;1.80;;;1.00;;
18455;SDS011;9357;49.900;8.208;2023-04-01T07:10:23;1.48;;;0.60;;
18455;SDS011;9357;49.900;8.208;2023-04-01T07:12:05;1.90;;;0.57;;
18455;SDS011;9357;49.900;8.208;2023-04-01T07:13:44;1.30;;;0.70;;
18455;SDS011;9357;49.900;8.208;2023-04-01T07:15:22;0.60;;;0.60;;
18455;SDS011;9357;49.900;8.208;2023-04-01T07:16:59;2.72;;;0.52;;
18455;SDS011;9357;49.900;8.208;2023-04-01T07:18:38;2.60;;;0.50;;
18455;SDS011;9357;49.900;8.208;2023-04-01T07:20:19;0.75;;;0.50;;
18455;SDS011;9357;49.900;8.208;2023-04-01T07:21:58;2.13;;;0.60;;
18455;SDS011;9357;49.900;8.208;2023-04-01T07:23:38;0.97;;;0.57;;
18455;SDS011;9357;49.900;8.208;2023-04-01T07:25:15;1.00;;;0.63;;
18455;SDS011;9357;49.900;8.208;2023-04-01T07:26:52;0.83;;;0.70;;
18455;SDS011;9357;49.900;8.208;2023-04-01T07:28:26;0.63;;;0.60;;
18455;SDS011;9357;49.900;8.208;2023-04-01T07:30:06;0.50;;;0.50;;
18455;SDS011;9357;49.900;8.208;2023-04-01T07:31:50;0.70;;;0.70;;
18455;SDS011;9357;49.900;8.208;2023-04-01T07:33:49;1.23;;;0.40;;
18455;SDS011;9357;49.900;8.208;2023-04-01T07:37:13;0.50;;;0.50;;
18455;SDS011;9357;49.900;8.208;2023-04-01T07:38:52;0.97;;;0.60;;
18455;SDS011;9357;49.900;8.208;2023-04-01T07:40:35;0.40;;;0.40;;
18455;SDS011;9357;49.900;8.208;2023-04-01T07:42:15;0.60;;;0.40;;
18455;SDS011;9357;49.900;8.208;2023-04-01T07:43:56;1.23;;;0.57;;
18455;SDS011;9357;49.900;8.208;2023-04-01T07:45:36;2.47;;;0.60;;
18455;SDS011;9357;49.900;8.208;2023-04-01T07:47:18;0.50;;;0.50;;
18455;SDS011;9357;49.900;8.208;2023-04-01T07:49:10;0.57;;;0.57;;
18455;SDS011;9357;49.900;8.208;2023-04-01T07:50:50;0.83;;;0.60;;
18455;SDS011;9357;49.900;8.208;2023-04-01T07:52:33;1.03;;;0.60;;
18455;SDS011;9357;49.900;8.208;2023-04-01T07:54:13;1.33;;;0.50;;
18455;SDS011;9357;49.900;8.208;2023-04-01T07:55:56;0.63;;;0.63;;
18455;SDS011;9357;49.900;8.208;2023-04-01T07:57:38;0.70;;;0.63;;
18455;SDS011;9357;49.900;8.208;2023-04-01T07:59:17;0.70;;;0.67;;
18455;SDS011;9357;49.900;8.208;2023-04-01T08:00:56;0.40;;;0.40;;
18455;SDS011;9357;49.900;8.208;2023-04-01T08:02:39;0.50;;;0.50;;
18455;SDS011;9357;49.900;8.208;2023-04-01T08:04:25;0.87;;;0.47;;
18455;SDS011;9357;49.900;8.208;2023-04-01T08:06:11;0.43;;;0.40;;
18455;SDS011;9357;49.900;8.208;2023-04-01T08:07:50;2.07;;;0.60;;
18455;SDS011;9357;49.900;8.208;2023-04-01T08:09:31;0.40;;;0.40;;
18455;SDS011;9357;49.900;8.208;2023-04-01T08:11:13;1.60;;;0.70;;
18455;SDS011;9357;49.900;8.208;2023-04-01T08:12:56;0.40;;;0.40;;
18455;SDS011;9357;49.900;8.208;2023-04-01T08:14:43;0.53;;;0.50;;
18455;SDS011;9357;49.900;8.208;2023-04-01T08:16:26;0.47;;;0.40;;
18455;SDS011;9357;49.900;8.208;2023-04-01T08:18:11;0.57;;;0.50;;
18455;SDS011;9357;49.900;8.208;2023-04-01T08:19:56;0.70;;;0.40;;
18455;SDS011;9357;49.900;8.208;2023-04-01T08:21:42;0.50;;;0.50;;
18455;SDS011;9357;49.900;8.208;2023-04-01T08:23:19;0.93;;;0.43;;
18455;SDS011;9357;49.900;8.208;2023-04-01T08:24:56;0.47;;;0.40;;
18455;SDS011;9357;49.900;8.208;2023-04-01T08:26:34;0.40;;;0.40;;
18455;SDS011;9357;49.900;8.208;2023-04-01T08:28:13;0.30;;;0.30;;
18455;SDS011;9357;49.900;8.208;2023-04-01T08:29:52;0.40;;;0.37;;
18455;SDS011;9357;49.900;8.208;2023-04-01T08:31:31;0.70;;;0.33;;
18455;SDS011;9357;49.900;8.208;2023-04-01T08:33:09;0.40;;;0.40;;
18455;SDS011;9357;49.900;8.208;2023-04-01T08:34:47;0.40;;;0.40;;
18455;SDS011;9357;49.900;8.208;2023-04-01T08:36:26;1.33;;;0.47;;
18455;SDS011;9357;49.900;8.208;2023-04-01T08:38:06;0.63;;;0.63;;
18455;SDS011;9357;49.900;8.208;2023-04-01T08:39:46;0.50;;;0.50;;
18455;SDS011;9357;49.900;8.208;2023-04-01T08:41:33;0.60;;;0.60;;
18455;SDS011;9357;49.900;8.208;2023-04-01T08:43:28;0.70;;;0.70;;
18455;SDS011;9357;49.900;8.208;2023-04-01T08:45:32;0.40;;;0.40;;
18455;SDS011;9357;49.900;8.208;2023-04-01T08:47:37;0.93;;;0.40;;
18455;SDS011;9357;49.900;8.208;2023-04-01T08:49:23;1.87;;;0.37;;
18455;SDS011;9357;49.900;8.208;2023-04-01T08:51:23;0.40;;;0.40;;
18455;SDS011;9357;49.900;8.208;2023-04-01T08:53:22;1.70;;;0.40;;
18455;SDS011;9357;49.900;8.208;2023-04-01T08:57:08;0.63;;;0.40;;
18455;SDS011;9357;49.900;8.208;2023-04-01T08:58:49;0.50;;;0.50;;
18455;SDS011;9357;49.900;8.208;2023-04-01T09:00:42;1.03;;;0.40;;
18455;SDS011;9357;49.900;8.208;2023-04-01T09:02:26;0.93;;;0.50;;
18455;SDS011;9357;49.900;8.208;2023-04-01T09:06:30;0.50;;;0.50;;
18455;SDS011;9357;49.900;8.208;2023-04-01T09:08:11;0.80;;;0.30;;
18455;SDS011;9357;49.900;8.208;2023-04-01T09:11:59;0.40;;;0.40;;
18455;SDS011;9357;49.900;8.208;2023-04-01T09:14:06;0.70;;;0.70;;
18455;SDS011;9357;49.900;8.208;2023-04-01T09:18:02;0.40;;;0.40;;
18455;SDS011;9357;49.900;8.208;2023-04-01T09:19:52;1.80;;;0.40;;
18455;SDS011;9357;49.900;8.208;2023-04-01T09:22:09;0.67;;;0.47;;
18455;SDS011;9357;49.900;8.208;2023-04-01T09:26:05;1.10;;;0.40;;
18455;SDS011;9357;49.900;8.208;2023-04-01T09:27:53;0.67;;;0.30;;
18455;SDS011;9357;49.900;8.208;2023-04-01T09:29:33;0.50;;;0.50;;
18455;SDS011;9357;49.900;8.208;2023-04-01T09:31:32;0.50;;;0.40;;
18455;SDS011;9357;49.900;8.208;2023-04-01T09:35:31;0.47;;;0.47;;
18455;SDS011;9357;49.900;8.208;2023-04-01T09:37:21;0.50;;;0.40;;
18455;SDS011;9357;49.900;8.208;2023-04-01T09:39:12;0.40;;;0.40;;
18455;SDS011;9357;49.900;8.208;2023-04-01T09:41:05;0.70;;;0.60;;
18455;SDS011;9357;49.900;8.208;2023-04-01T09:42:45;0.30;;;0.30;;
18455;SDS011;9357;49.900;8.208;2023-04-01T09:44:48;0.80;;;0.47;;
18455;SDS011;9357;49.900;8.208;2023-04-01T09:46:33;0.53;;;0.40;;
18455;SDS011;9357;49.900;8.208;2023-04-01T09:48:19;0.33;;;0.33;;
18455;SDS011;9357;49.900;8.208;2023-04-01T09:50:13;0.53;;;0.47;;
18455;SDS011;9357;49.900;8.208;2023-04-01T09:51:55;0.77;;;0.30;;
18455;SDS011;9357;49.900;8.208;2023-04-01T09:53:46;2.03;;;1.83;;
18455;SDS011;9357;49.900;8.208;2023-04-01T09:57:41;0.97;;;0.97;;
18455;SDS011;9357;49.900;8.208;2023-04-01T09:59:44;1.40;;;1.30;;
18455;SDS011;9357;49.900;8.208;2023-04-01T10:05:54;0.67;;;0.50;;
18455;SDS011;9357;49.900;8.208;2023-04-01T10:08:08;0.57;;;0.57;;
18455;SDS011;9357;49.900;8.208;2023-04-01T10:12:29;0.40;;;0.40;;
18455;SDS011;9357;49.900;8.208;2023-04-01T10:14:43;0.40;;;0.40;;
18455;SDS011;9357;49.900;8.208;2023-04-01T10:16:58;0.40;;;0.40;;
18455;SDS011;9357;49.900;8.208;2023-04-01T10:19:07;0.57;;;0.57;;
18455;SDS011;9357;49.900;8.208;2023-04-01T10:21:06;0.87;;;0.40;;
18455;SDS011;9357;49.900;8.208;2023-04-01T10:23:07;0.43;;;0.43;;
18455;SDS011;9357;49.900;8.208;2023-04-01T10:25:05;0.40;;;0.40;;
18455;SDS011;9357;49.900;8.208;2023-04-01T10:27:02;0.40;;;0.40;;
18455;SDS011;9357;49.900;8.208;2023-04-01T10:35:28;0.30;;;0.30;;
18455;SDS011;9357;49.900;8.208;2023-04-01T10:37:30;0.47;;;0.47;;
18455;SDS011;9357;49.900;8.208;2023-04-01T10:39:37;0.80;;;0.40;;